Flight Track Log - Related Links

Times and Time Zones

All times are in EDT time to prevent confusion due to time zone crossing. See the TAM3110 flight status page for this flight to view local times or setup timezone preferences in your user account.

Time Position Orientation Groundspeed Altitude Reporting Facility
EDT Latitude Longitude Course Direction KTS MPH feet Rate Location/Type
Tue 06:55:15 PM -27.6820 -48.5190 112° Southeast 163 188 900  Level FlightAware ADS-B
Tue 06:55:31 PM -27.6860 -48.5060 109° East 183 211 1,400 2,000 Climbing FlightAware ADS-B
Tue 06:55:51 PM -27.6920 -48.4860 109° East 203 234 2,100 2,357 Climbing FlightAware ADS-B
Tue 06:55:59 PM -27.6930 -48.4770 97° East 204 235 2,500 2,000 Climbing FlightAware ADS-B
Tue 06:56:27 PM -27.6850 -48.4470 73° East 246 283 3,300 1,950 Climbing FlightAware ADS-B
Tue 06:56:39 PM -27.6830 -48.4300 82° East 264 304 3,800 789 Climbing FlightAware ADS-B
Tue 06:57:05 PM -27.6810 -48.4000 86° East 264 304 3,800 3,667 Level FlightAware ADS-B
Tue 06:57:15 PM -27.6880 -48.3800 112° Southeast 275 316 6,000 6,889 Climbing FlightAware ADS-B
Tue 06:57:32 PM -27.6920 -48.3570 101° East 277 319 6,900 3,536 Climbing FlightAware ADS-B
Tue 06:58:11 PM -27.6880 -48.2970 86° East 300 345 9,300 3,647 Climbing FlightAware ADS-B
Tue 06:58:23 PM -27.6760 -48.2840 44° Northeast 301 346 10,000 3,300 Climbing FlightAware ADS-B
Tue 06:58:31 PM -27.6680 -48.2790 29° Northeast 298 343 10,400 2,100 Climbing FlightAware ADS-B
Tue 06:59:03 PM -27.6230 -48.2610 20° North 334 384 11,400 2,206 Climbing FlightAware ADS-B
Tue 06:59:39 PM -27.5680 -48.2380 20° North 359 413 12,900 2,219 Climbing FlightAware ADS-B
Tue 07:00:16 PM -27.5070 -48.2110 21° North 386 444 14,100 2,270 Climbing FlightAware ADS-B
Tue 07:00:53 PM -27.4430 -48.1840 21° North 400 460 15,700 2,560 Climbing FlightAware ADS-B
Tue 07:01:31 PM -27.3930 -48.1620 21° North 405 466 17,300 2,301 Climbing FlightAware ADS-B
Tue 07:02:06 PM -27.3210 -48.1320 20° North 419 482 18,500 2,270 Climbing FlightAware ADS-B
Tue 07:02:45 PM -27.2450 -48.1000 21° North 425 489 20,100 2,240 Climbing FlightAware ADS-B
Tue 07:03:21 PM -27.1800 -48.0720 21° North 432 497 21,300 2,080 Climbing FlightAware ADS-B
Tue 07:04:00 PM -27.1010 -48.0390 20° North 441 507 22,700 2,080 Climbing FlightAware ADS-B
Tue 07:04:36 PM -27.0370 -48.0120 21° North 442 509 23,900 2,113 Climbing FlightAware ADS-B
Tue 07:05:11 PM -26.9670 -47.9820 21° North 440 506 25,200 1,680 Climbing FlightAware ADS-B
Tue 07:05:51 PM -26.8900 -47.9500 20° North 454 522 26,000 1,280 Climbing FlightAware ADS-B
Tue 07:06:26 PM -26.8260 -47.9220 21° North 459 528 26,800 1,946 Climbing FlightAware ADS-B
Tue 07:07:05 PM -26.7400 -47.8860 20° North 447 514 28,400 2,657 Climbing FlightAware ADS-B
Tue 07:07:36 PM -26.6850 -47.8630 20° North 429 494 29,900 2,455 Climbing FlightAware ADS-B
Tue 07:08:11 PM -26.6210 -47.8360 21° North 418 481 31,100 1,200 Climbing FlightAware ADS-B
Tue 07:08:46 PM -26.5540 -47.8090 20° North 435 501 31,300 514 Climbing FlightAware ADS-B
Tue 07:09:21 PM -26.4900 -47.7820 21° North 445 512 31,700 857 Climbing FlightAware ADS-B
Tue 07:09:56 PM -26.4200 -47.7520 21° North 449 517 32,300 1,108 Climbing FlightAware ADS-B
Tue 07:10:26 PM -26.3630 -47.7280 21° North 450 518 32,900 656 Climbing FlightAware ADS-B
Tue 07:11:00 PM -26.2940 -47.7000 20° North 445 512 33,000 76 Climbing FlightAware ADS-B
Tue 07:11:45 PM -26.2070 -47.6640 20° North 441 507 33,000  Level FlightAware ADS-B
Tue 07:12:21 PM -26.1410 -47.6360 21° North 441 507 33,000  Level FlightAware ADS-B
Tue 07:12:55 PM -26.0750 -47.6090 20° North 442 509 33,000  Level FlightAware ADS-B
Tue 07:13:36 PM -25.9970 -47.5760 21° North 443 510 33,000  Level FlightAware ADS-B
Tue 07:14:11 PM -25.9590 -47.5600 21° North 440 506 33,000  Level FlightAware ADS-B
Tue 07:14:47 PM -25.8770 -47.5260 20° North 438 504 33,000  Level FlightAware ADS-B
Tue 07:15:23 PM -25.8040 -47.4960 20° North 437 503 33,000  Level FlightAware ADS-B
Tue 07:15:54 PM -25.7510 -47.4740 20° North 437 503 33,000  Level FlightAware ADS-B
Tue 07:16:34 PM -25.6740 -47.4430 20° North 439 505 33,000  Level FlightAware ADS-B
Tue 07:17:08 PM -25.6080 -47.4150 21° North 438 504 33,000  Level FlightAware ADS-B
Tue 07:17:48 PM -25.5300 -47.3830 20° North 437 503 33,000  Level FlightAware ADS-B
Tue 07:18:21 PM -25.4680 -47.3570 21° North 437 503 33,000  Level FlightAware ADS-B
Tue 07:19:01 PM -25.3970 -47.3280 20° North 437 503 33,000  Level FlightAware ADS-B
Tue 07:19:48 PM -25.3030 -47.2900 20° North 436 502 33,000  Level FlightAware ADS-B
Tue 07:20:20 PM -25.2390 -47.2640 20° North 437 503 33,000  Level FlightAware ADS-B
Tue 07:20:52 PM -25.1870 -47.2430 20° North 438 504 33,000 -896 Level FlightAware ADS-B
Tue 07:21:27 PM -25.1150 -47.2140 20° North 440 506 32,000 -1,690 Descending FlightAware ADS-B
Tue 07:22:03 PM -25.0520 -47.1880 21° North 436 502 31,000 -2,348 Descending FlightAware ADS-B
Tue 07:22:36 PM -24.9790 -47.1590 20° North 446 513 29,300 -2,833 Descending FlightAware ADS-B
Tue 07:23:15 PM -24.9080 -47.1300 20° North 453 521 27,600 -2,687 Descending FlightAware ADS-B
Tue 07:23:43 PM -24.8520 -47.1080 20° North 453 521 26,300 -2,696 Descending FlightAware ADS-B
Tue 07:24:24 PM -24.7730 -47.0750 21° North 421 484 24,500 -2,757 Descending FlightAware ADS-B
Tue 07:24:57 PM -24.7150 -47.0520 20° North 409 471 22,900 -2,620 Descending FlightAware ADS-B
Tue 07:25:35 PM -24.6510 -47.0260 20° North 397 457 21,400 -2,314 Descending FlightAware ADS-B
Tue 07:26:07 PM -24.5950 -47.0040 20° North 386 444 20,200 -2,189 Descending FlightAware ADS-B
Tue 07:26:49 PM -24.5250 -46.9760 20° North 391 450 18,700 -2,189 Descending FlightAware ADS-B
Tue 07:27:21 PM -24.4720 -46.9440 29° Northeast 401 461 17,500 -2,108 Descending FlightAware ADS-B
Tue 07:28:03 PM -24.4110 -46.9000 33° Northeast 391 450 16,100 -2,080 Descending FlightAware ADS-B
Tue 07:28:36 PM -24.3600 -46.8630 33° Northeast 389 448 14,900 -2,182 Descending FlightAware ADS-B
Tue 07:29:20 PM -24.2910 -46.8140 33° Northeast 384 442 13,300 -2,100 Descending FlightAware ADS-B
Tue 07:29:56 PM -24.2370 -46.7710 36° Northeast 378 435 12,100 -1,698 Descending FlightAware ADS-B
Tue 07:30:13 PM -24.2230 -46.7450 59° Northeast 373 429 11,800 -808 Descending FlightAware ADS-B
Tue 07:30:48 PM -24.1980 -46.6920 63° Northeast 347 399 11,400 -896 Descending FlightAware ADS-B
Tue 07:31:20 PM -24.1760 -46.6420 64° Northeast 326 375 10,800 -1,315 Descending FlightAware ADS-B
Tue 07:32:01 PM -24.1490 -46.5830 63° Northeast 321 369 9,800 -1,292 Descending FlightAware ADS-B
Tue 07:32:25 PM -24.1320 -46.5470 63° Northeast 311 358 9,400 -783 Descending FlightAware ADS-B
Tue 07:32:47 PM -24.1200 -46.5200 64° Northeast 299 344 9,200 -638 Descending FlightAware ADS-B
Tue 07:33:12 PM -24.1040 -46.4860 63° Northeast 286 329 8,900 -792 Descending FlightAware ADS-B
Tue 07:33:40 PM -24.0870 -46.4490 63° Northeast 271 312 8,500 -667 Descending FlightAware ADS-B
Tue 07:33:57 PM -24.0780 -46.4310 61° Northeast 259 298 8,400 -474 Descending FlightAware ADS-B
Tue 07:34:18 PM -24.0670 -46.4090 61° Northeast 246 283 8,200 -533 Descending FlightAware ADS-B
Tue 07:34:42 PM -24.0550 -46.3820 64° Northeast 233 268 8,000 -439 Descending FlightAware ADS-B
Tue 07:34:59 PM -24.0420 -46.3710 38° Northeast 219 252 7,900 -480 Descending FlightAware ADS-B
Tue 07:35:07 PM -24.0330 -46.3700 North 202 232 7,800 -375 Descending FlightAware ADS-B
Tue 07:35:15 PM -24.0270 -46.3730 335° Northwest 195 224 7,800 -375 Level FlightAware ADS-B
Tue 07:35:23 PM -24.0220 -46.3790 312° West 185 213 7,700 -500 Descending FlightAware ADS-B
Tue 07:35:39 PM -24.0120 -46.3890 318° Northwest 184 212 7,600 -364 Descending FlightAware ADS-B
Tue 07:35:56 PM -24.0000 -46.3980 326° Northwest 187 215 7,500 -293 Descending FlightAware ADS-B
Tue 07:36:20 PM -23.9810 -46.4110 328° Northwest 185 213 7,400 -293 Descending FlightAware ADS-B
Tue 07:36:37 PM -23.9700 -46.4190 326° Northwest 181 208 7,300 -300 Descending FlightAware ADS-B
Tue 07:37:00 PM -23.9520 -46.4320 327° Northwest 186 214 7,200 -267 Descending FlightAware ADS-B
Tue 07:37:22 PM -23.9380 -46.4420 327° Northwest 186 214 7,100 -308 Descending FlightAware ADS-B
Tue 07:37:39 PM -23.9260 -46.4500 329° Northwest 186 214 7,000 -293 Descending FlightAware ADS-B
Tue 07:38:03 PM -23.9080 -46.4620 329° Northwest 185 213 6,900 -340 Descending FlightAware ADS-B
Tue 07:38:32 PM -23.8860 -46.4770 328° Northwest 186 214 6,700 -333 Descending FlightAware ADS-B
Tue 07:38:57 PM -23.8680 -46.4890 329° Northwest 188 216 6,600 -267 Descending FlightAware ADS-B
Tue 07:39:17 PM -23.8540 -46.5000 324° Northwest 187 215 6,500 -333 Descending FlightAware ADS-B
Tue 07:39:33 PM -23.8420 -46.5080 329° Northwest 185 213 6,400 -364 Descending FlightAware ADS-B
Tue 07:39:50 PM -23.8290 -46.5160 331° Northwest 187 215 6,300 -146 Descending FlightAware ADS-B
Tue 07:40:14 PM -23.8120 -46.5280 327° Northwest 181 208 6,300 -125 Level FlightAware ADS-B
Tue 07:40:38 PM -23.7960 -46.5400 326° Northwest 156 180 6,200 -471 Descending FlightAware ADS-B
Tue 07:41:05 PM -23.7810 -46.5500 329° Northwest 148 170 5,900 -857 Descending FlightAware ADS-B
Tue 07:41:27 PM -23.7670 -46.5590 330° Northwest 151 174 5,500 -1,050 Descending FlightAware ADS-B
Tue 07:41:45 PM -23.7570 -46.5660 327° Northwest 152 175 5,200 -706 Descending FlightAware ADS-B
Tue 07:42:01 PM -23.7470 -46.5730 327° Northwest 146 168 5,100 -545 Descending FlightAware ADS-B
Tue 07:42:18 PM -23.7390 -46.5790 326° Northwest 142 163 4,900 -878 Descending FlightAware ADS-B
Tue 07:42:42 PM -23.7250 -46.5880 330° Northwest 139 160 4,500 -818 Descending FlightAware ADS-B
Tue 07:43:02 PM -23.7140 -46.5960 326° Northwest 138 159 4,300 -682 Descending FlightAware ADS-B
Tue 07:43:26 PM -23.7010 -46.6050 328° Northwest 130 150 4,000 -878 Descending FlightAware ADS-B
Tue 07:43:43 PM -23.6930 -46.6110 326° Northwest 131 151 3,700 -811 Descending FlightAware ADS-B
Tue 07:44:03 PM -23.6810 -46.6190 329° Northwest 127 146 3,500 -558 Descending FlightAware ADS-B
Tue 07:44:26 PM -23.6720 -46.6250 329° Northwest 127 146 3,300 -638 Descending FlightAware ADS-B
Tue 07:44:50 PM -23.6600 -46.6330 329° Northwest 127 146 3,000 -732 Descending FlightAware ADS-B
Tue 07:45:07 PM -23.6520 -46.6390 326° Northwest 125 144 2,800 -732 Descending FlightAware ADS-B
Tue 07:45:31 PM -23.6390 -46.6480 328° Northwest 126 145 2,500 -750 Descending FlightAware ADS-B
Tue 07:45:56 PM -23.6280 -46.6560 326° Northwest 125 144 -6,000 Descending FlightAware ADS-B
Tue 07:47:17 PM -23.6170 -46.6470 67° East 125 144  Level FlightAware ADS-B
Tue 07:47:41 PM -23.6260 -46.6580 228° Southwest 125 144  Level FlightAware ADS-B
Tue 07:48:07 PM -23.6180 -46.6470 52° Northeast 125 144  Level FlightAware ADS-B
Tue 07:48:35 PM -23.6190 -46.6450 119° Southeast 125 144  Level FlightAware ADS-B
Tue 07:48:52 PM -23.6290 -46.6570 228° Southwest 125 144  Level FlightAware ADS-B
Tue 07:49:20 PM -23.6280 -46.6420 86° East 125 144  Level FlightAware ADS-B
Tue 07:49:53 PM -23.6300 -46.6590 263° West 125 144  Level FlightAware ADS-B
Tue 07:50:20 PM -23.6370 -46.6460 120° Southeast 125 144  Level FlightAware ADS-B

Login

Don't have an account? Register now (free) for customized features, flight alerts, and more!